sensor_id;sensor_type;location;lat;lon;timestamp;pressure;altitude;pressure_sealevel;temperature;humidity
65897;BME280;52677;50.898;10.854;2022-07-22T00:00:54;98926.25;;;19.21;74.53
65897;BME280;52677;50.898;10.854;2022-07-22T00:02:54;98921.91;;;19.17;74.69
65897;BME280;52677;50.898;10.854;2022-07-22T00:04:54;98917.06;;;19.17;74.55
65897;BME280;52677;50.898;10.854;2022-07-22T00:06:55;98919.53;;;19.15;74.44
65897;BME280;52677;50.898;10.854;2022-07-22T00:08:55;98915.97;;;19.11;74.76
65897;BME280;52677;50.898;10.854;2022-07-22T00:10:56;98915.78;;;18.98;75.31
65897;BME280;52677;50.898;10.854;2022-07-22T00:12:56;98919.00;;;18.97;75.37
65897;BME280;52677;50.898;10.854;2022-07-22T00:14:57;98928.31;;;18.90;75.47
65897;BME280;52677;50.898;10.854;2022-07-22T00:16:57;98933.22;;;18.83;75.78
65897;BME280;52677;50.898;10.854;2022-07-22T00:18:57;98932.06;;;18.80;75.95
65897;BME280;52677;50.898;10.854;2022-07-22T00:20:58;98934.97;;;18.73;76.39
65897;BME280;52677;50.898;10.854;2022-07-22T00:22:58;98938.66;;;18.66;76.34
65897;BME280;52677;50.898;10.854;2022-07-22T00:24:59;98931.13;;;18.60;76.87
65897;BME280;52677;50.898;10.854;2022-07-22T00:26:59;98932.38;;;18.55;76.97
65897;BME280;52677;50.898;10.854;2022-07-22T00:28:59;98937.66;;;18.49;77.27
65897;BME280;52677;50.898;10.854;2022-07-22T00:31:00;98932.50;;;18.44;77.13
65897;BME280;52677;50.898;10.854;2022-07-22T00:33:01;98930.09;;;18.46;76.83
65897;BME280;52677;50.898;10.854;2022-07-22T00:35:01;98928.19;;;18.40;77.11
65897;BME280;52677;50.898;10.854;2022-07-22T00:37:01;98926.63;;;18.35;77.02
65897;BME280;52677;50.898;10.854;2022-07-22T00:39:02;98923.09;;;18.31;76.75
65897;BME280;52677;50.898;10.854;2022-07-22T00:41:03;98926.34;;;18.26;76.40
65897;BME280;52677;50.898;10.854;2022-07-22T00:43:03;98923.59;;;18.22;76.50
65897;BME280;52677;50.898;10.854;2022-07-22T00:45:04;98926.03;;;18.20;77.05
65897;BME280;52677;50.898;10.854;2022-07-22T00:47:05;98928.06;;;18.16;77.08
65897;BME280;52677;50.898;10.854;2022-07-22T00:49:07;98924.13;;;18.10;76.99
65897;BME280;52677;50.898;10.854;2022-07-22T00:51:08;98922.97;;;18.08;77.32
65897;BME280;52677;50.898;10.854;2022-07-22T00:53:08;98927.34;;;18.09;77.33
65897;BME280;52677;50.898;10.854;2022-07-22T00:55:09;98930.56;;;18.07;77.16
65897;BME280;52677;50.898;10.854;2022-07-22T00:57:09;98916.59;;;18.04;77.02
65897;BME280;52677;50.898;10.854;2022-07-22T00:59:11;98923.41;;;18.06;77.14
65897;BME280;52677;50.898;10.854;2022-07-22T01:01:11;98926.63;;;18.05;77.14
65897;BME280;52677;50.898;10.854;2022-07-22T01:03:13;98925.72;;;18.11;76.95
65897;BME280;52677;50.898;10.854;2022-07-22T01:05:14;98932.09;;;18.12;77.15
65897;BME280;52677;50.898;10.854;2022-07-22T01:07:14;98932.09;;;18.12;76.87
65897;BME280;52677;50.898;10.854;2022-07-22T01:09:14;98929.28;;;18.15;77.13
65897;BME280;52677;50.898;10.854;2022-07-22T01:11:17;98928.00;;;18.20;76.87
65897;BME280;52677;50.898;10.854;2022-07-22T01:13:18;98928.00;;;18.20;76.71
65897;BME280;52677;50.898;10.854;2022-07-22T01:15:18;98921.22;;;18.21;76.88
65897;BME280;52677;50.898;10.854;2022-07-22T01:17:19;98914.06;;;18.16;76.92
65897;BME280;52677;50.898;10.854;2022-07-22T01:19:19;98918.03;;;18.19;76.99
65897;BME280;52677;50.898;10.854;2022-07-22T01:21:20;98918.44;;;18.17;76.93
65897;BME280;52677;50.898;10.854;2022-07-22T01:23:20;98932.03;;;18.19;76.75
65897;BME280;52677;50.898;10.854;2022-07-22T01:25:21;98917.28;;;18.15;77.01
65897;BME280;52677;50.898;10.854;2022-07-22T01:27:21;98918.50;;;18.14;76.73
65897;BME280;52677;50.898;10.854;2022-07-22T01:29:22;98921.72;;;18.12;77.11
65897;BME280;52677;50.898;10.854;2022-07-22T01:31:22;98916.94;;;18.09;77.29
65897;BME280;52677;50.898;10.854;2022-07-22T01:33:22;98920.13;;;18.11;77.16
65897;BME280;52677;50.898;10.854;2022-07-22T01:35:23;98917.22;;;18.18;76.73
65897;BME280;52677;50.898;10.854;2022-07-22T01:37:23;98919.22;;;18.21;76.79
65897;BME280;52677;50.898;10.854;2022-07-22T01:39:24;98909.22;;;18.20;76.72
65897;BME280;52677;50.898;10.854;2022-07-22T01:41:24;98916.03;;;18.19;76.63
65897;BME280;52677;50.898;10.854;2022-07-22T01:43:25;98916.06;;;18.16;76.89
65897;BME280;52677;50.898;10.854;2022-07-22T01:45:25;98921.63;;;18.19;76.65
65897;BME280;52677;50.898;10.854;2022-07-22T01:47:26;98915.28;;;18.15;76.86
65897;BME280;52677;50.898;10.854;2022-07-22T01:49:26;98914.84;;;18.20;76.40
65897;BME280;52677;50.898;10.854;2022-07-22T01:51:26;98920.47;;;18.17;76.39
65897;BME280;52677;50.898;10.854;2022-07-22T01:53:27;98920.47;;;18.17;76.54
65897;BME280;52677;50.898;10.854;2022-07-22T01:55:27;98918.53;;;18.10;76.62
65897;BME280;52677;50.898;10.854;2022-07-22T01:57:27;98914.13;;;18.13;76.44
65897;BME280;52677;50.898;10.854;2022-07-22T01:59:28;98919.75;;;18.09;76.39
65897;BME280;52677;50.898;10.854;2022-07-22T02:01:28;98913.78;;;18.07;76.35
65897;BME280;52677;50.898;10.854;2022-07-22T02:03:29;98918.59;;;18.07;76.20
65897;BME280;52677;50.898;10.854;2022-07-22T02:05:29;98915.72;;;18.10;76.25
65897;BME280;52677;50.898;10.854;2022-07-22T02:07:30;98916.94;;;18.09;76.16
65897;BME280;52677;50.898;10.854;2022-07-22T02:09:30;98913.78;;;18.07;75.59
65897;BME280;52677;50.898;10.854;2022-07-22T02:11:31;98923.41;;;18.06;75.91
65897;BME280;52677;50.898;10.854;2022-07-22T02:13:31;98915.81;;;18.03;75.39
65897;BME280;52677;50.898;10.854;2022-07-22T02:15:32;98918.66;;;18.00;75.51
65897;BME280;52677;50.898;10.854;2022-07-22T02:17:34;98927.91;;;17.96;76.44
65897;BME280;52677;50.898;10.854;2022-07-22T02:19:35;98917.91;;;17.95;76.70
65897;BME280;52677;50.898;10.854;2022-07-22T02:21:35;98920.78;;;17.88;77.04
65897;BME280;52677;50.898;10.854;2022-07-22T02:23:35;98922.03;;;17.84;76.80
65897;BME280;52677;50.898;10.854;2022-07-22T02:25:36;98921.25;;;17.83;75.78
65897;BME280;52677;50.898;10.854;2022-07-22T02:27:36;98925.25;;;17.82;76.54
65897;BME280;52677;50.898;10.854;2022-07-22T02:29:37;98924.84;;;17.84;76.47
65897;BME280;52677;50.898;10.854;2022-07-22T02:31:38;98920.44;;;17.83;76.65
65897;BME280;52677;50.898;10.854;2022-07-22T02:33:38;98914.06;;;17.82;76.94
65897;BME280;52677;50.898;10.854;2022-07-22T02:35:39;98922.81;;;17.84;76.44
65897;BME280;52677;50.898;10.854;2022-07-22T02:37:39;98922.41;;;17.86;75.21
65897;BME280;52677;50.898;10.854;2022-07-22T02:39:40;98923.19;;;17.90;74.39
65897;BME280;52677;50.898;10.854;2022-07-22T02:41:40;98929.09;;;17.95;73.86
65897;BME280;52677;50.898;10.854;2022-07-22T02:43:41;98933.88;;;17.99;74.35
65897;BME280;52677;50.898;10.854;2022-07-22T02:45:41;98929.94;;;17.92;75.37
65897;BME280;52677;50.898;10.854;2022-07-22T02:47:49;98937.19;;;17.86;74.83
65897;BME280;52677;50.898;10.854;2022-07-22T02:49:50;98936.16;;;17.73;75.93
65897;BME280;52677;50.898;10.854;2022-07-22T02:51:50;98941.84;;;17.59;76.92
65897;BME280;52677;50.898;10.854;2022-07-22T02:53:51;98946.34;;;17.46;78.11
65897;BME280;52677;50.898;10.854;2022-07-22T02:55:51;98937.63;;;17.36;78.00
65897;BME280;52677;50.898;10.854;2022-07-22T02:57:52;98944.44;;;17.35;76.92
65897;BME280;52677;50.898;10.854;2022-07-22T02:59:52;98939.22;;;17.37;77.84
65897;BME280;52677;50.898;10.854;2022-07-22T03:01:52;98942.06;;;17.34;78.18
65897;BME280;52677;50.898;10.854;2022-07-22T03:03:53;98940.88;;;17.31;78.00
65897;BME280;52677;50.898;10.854;2022-07-22T03:05:53;98930.88;;;17.34;77.25
65897;BME280;52677;50.898;10.854;2022-07-22T03:07:53;98938.16;;;17.21;79.65
65897;BME280;52677;50.898;10.854;2022-07-22T03:09:54;98933.78;;;17.20;77.98
65897;BME280;52677;50.898;10.854;2022-07-22T03:11:54;98930.22;;;17.16;79.29
65897;BME280;52677;50.898;10.854;2022-07-22T03:13:54;98939.41;;;17.12;78.40
65897;BME280;52677;50.898;10.854;2022-07-22T03:15:55;98938.66;;;17.08;78.70
65897;BME280;52677;50.898;10.854;2022-07-22T03:17:55;98927.94;;;16.96;80.01
65897;BME280;52677;50.898;10.854;2022-07-22T03:19:55;98937.16;;;16.97;78.83
65897;BME280;52677;50.898;10.854;2022-07-22T03:21:56;98933.53;;;17.00;78.56
65897;BME280;52677;50.898;10.854;2022-07-22T03:23:56;98936.75;;;16.95;78.63
65897;BME280;52677;50.898;10.854;2022-07-22T03:25:56;98935.53;;;16.99;77.11
65897;BME280;52677;50.898;10.854;2022-07-22T03:27:57;98930.69;;;17.03;76.88
65897;BME280;52677;50.898;10.854;2022-07-22T03:29:58;98937.50;;;17.02;77.51
65897;BME280;52677;50.898;10.854;2022-07-22T03:31:58;98940.72;;;17.01;77.54
65897;BME280;52677;50.898;10.854;2022-07-22T03:33:58;98941.50;;;17.01;78.28
65897;BME280;52677;50.898;10.854;2022-07-22T03:36:00;98946.31;;;17.01;77.67
65897;BME280;52677;50.898;10.854;2022-07-22T03:38:01;98942.69;;;17.04;77.55
65897;BME280;52677;50.898;10.854;2022-07-22T03:40:02;98944.28;;;17.05;78.05
65897;BME280;52677;50.898;10.854;2022-07-22T03:42:03;98954.66;;;17.04;77.79
65897;BME280;52677;50.898;10.854;2022-07-22T03:44:04;98943.50;;;17.01;78.34
65897;BME280;52677;50.898;10.854;2022-07-22T03:46:04;98941.88;;;17.03;77.42
65897;BME280;52677;50.898;10.854;2022-07-22T03:48:05;98946.31;;;17.01;80.03
65897;BME280;52677;50.898;10.854;2022-07-22T03:50:05;98949.94;;;16.94;79.57
65897;BME280;52677;50.898;10.854;2022-07-22T03:52:06;98945.19;;;16.88;80.32
65897;BME280;52677;50.898;10.854;2022-07-22T03:54:06;98951.63;;;16.81;80.72
65897;BME280;52677;50.898;10.854;2022-07-22T03:56:07;98946.88;;;16.74;81.25
65897;BME280;52677;50.898;10.854;2022-07-22T03:58:07;98943.69;;;16.72;80.15
65897;BME280;52677;50.898;10.854;2022-07-22T04:00:08;98943.66;;;16.76;80.64
65897;BME280;52677;50.898;10.854;2022-07-22T04:02:08;98954.00;;;16.82;79.58
65897;BME280;52677;50.898;10.854;2022-07-22T04:04:09;98942.03;;;16.82;80.33
65897;BME280;52677;50.898;10.854;2022-07-22T04:06:09;98941.63;;;16.83;80.10
65897;BME280;52677;50.898;10.854;2022-07-22T04:08:10;98940.00;;;16.90;79.09
65897;BME280;52677;50.898;10.854;2022-07-22T04:10:10;98941.16;;;16.92;79.20
65897;BME280;52677;50.898;10.854;2022-07-22T04:12:12;98937.94;;;16.97;78.78
65897;BME280;52677;50.898;10.854;2022-07-22T04:14:12;98935.13;;;17.01;79.02
65897;BME280;52677;50.898;10.854;2022-07-22T04:16:12;98925.94;;;17.00;79.46
65897;BME280;52677;50.898;10.854;2022-07-22T04:18:13;98936.34;;;17.00;79.61
65897;BME280;52677;50.898;10.854;2022-07-22T04:20:15;98939.91;;;17.00;80.19
65897;BME280;52677;50.898;10.854;2022-07-22T04:22:15;98934.28;;;17.04;79.07
65897;BME280;52677;50.898;10.854;2022-07-22T04:24:15;98927.47;;;17.08;79.08
65897;BME280;52677;50.898;10.854;2022-07-22T04:26:16;98932.66;;;17.13;81.08
65897;BME280;52677;50.898;10.854;2022-07-22T04:28:16;98932.97;;;17.19;81.31
65897;BME280;52677;50.898;10.854;2022-07-22T04:30:17;98935.78;;;17.23;80.14
65897;BME280;52677;50.898;10.854;2022-07-22T04:32:17;98941.38;;;17.23;81.75
65897;BME280;52677;50.898;10.854;2022-07-22T04:34:17;98937.34;;;17.24;82.02
65897;BME280;52677;50.898;10.854;2022-07-22T04:36:18;98936.53;;;17.27;81.87
65897;BME280;52677;50.898;10.854;2022-07-22T04:38:18;98941.31;;;17.30;82.13
65897;BME280;52677;50.898;10.854;2022-07-22T04:40:19;98942.91;;;17.31;82.13
65897;BME280;52677;50.898;10.854;2022-07-22T04:42:19;98944.44;;;17.35;81.57
65897;BME280;52677;50.898;10.854;2022-07-22T04:44:19;98941.59;;;17.42;81.46
65897;BME280;52677;50.898;10.854;2022-07-22T04:46:20;98947.16;;;17.46;82.40
65897;BME280;52677;50.898;10.854;2022-07-22T04:48:20;98941.16;;;17.48;82.08
65897;BME280;52677;50.898;10.854;2022-07-22T04:50:21;98935.13;;;17.49;81.28
65897;BME280;52677;50.898;10.854;2022-07-22T04:52:21;98937.88;;;17.53;80.93
65897;BME280;52677;50.898;10.854;2022-07-22T04:54:21;98943.06;;;17.58;80.33
65897;BME280;52677;50.898;10.854;2022-07-22T04:56:22;98945.41;;;17.63;79.99
65897;BME280;52677;50.898;10.854;2022-07-22T04:58:22;98949.38;;;17.65;80.77
65897;BME280;52677;50.898;10.854;2022-07-22T05:00:23;98938.56;;;17.67;81.07
65897;BME280;52677;50.898;10.854;2022-07-22T05:02:24;98939.75;;;17.70;79.37
65897;BME280;52677;50.898;10.854;2022-07-22T05:04:24;98936.16;;;17.73;79.64
65897;BME280;52677;50.898;10.854;2022-07-22T05:06:25;98940.09;;;17.79;79.66
65897;BME280;52677;50.898;10.854;2022-07-22T05:08:25;98942.00;;;17.86;78.74
65897;BME280;52677;50.898;10.854;2022-07-22T05:10:26;98946.38;;;17.87;79.93
65897;BME280;52677;50.898;10.854;2022-07-22T05:12:27;98953.13;;;17.93;80.10
65897;BME280;52677;50.898;10.854;2022-07-22T05:14:27;98954.28;;;17.95;80.08
65897;BME280;52677;50.898;10.854;2022-07-22T05:16:28;98956.28;;;17.95;80.37
65897;BME280;52677;50.898;10.854;2022-07-22T05:18:28;98954.28;;;17.95;80.10
65897;BME280;52677;50.898;10.854;2022-07-22T05:20:28;98952.22;;;18.03;80.28
65897;BME280;52677;50.898;10.854;2022-07-22T05:22:29;98954.63;;;18.05;80.43
65897;BME280;52677;50.898;10.854;2022-07-22T05:24:29;98947.72;;;18.13;79.00
65897;BME280;52677;50.898;10.854;2022-07-22T05:26:30;98956.06;;;18.16;79.13
65897;BME280;52677;50.898;10.854;2022-07-22T05:28:32;98956.41;;;18.22;78.66
65897;BME280;52677;50.898;10.854;2022-07-22T05:30:32;98944.78;;;18.23;79.52
65897;BME280;52677;50.898;10.854;2022-07-22T05:32:33;98949.50;;;18.30;79.70
65897;BME280;52677;50.898;10.854;2022-07-22T05:34:33;98945.50;;;18.31;79.14
65897;BME280;52677;50.898;10.854;2022-07-22T05:36:34;98954.63;;;18.35;78.90
65897;BME280;52677;50.898;10.854;2022-07-22T05:38:34;98953.44;;;18.36;78.77
65897;BME280;52677;50.898;10.854;2022-07-22T05:40:34;98953.81;;;18.38;78.74
65897;BME280;52677;50.898;10.854;2022-07-22T05:42:35;98951.03;;;18.38;78.94
65897;BME280;52677;50.898;10.854;2022-07-22T05:44:35;98953.81;;;18.38;78.74
65897;BME280;52677;50.898;10.854;2022-07-22T05:46:35;98958.16;;;18.43;77.78
65897;BME280;52677;50.898;10.854;2022-07-22T05:48:36;98961.75;;;18.43;77.70
65897;BME280;52677;50.898;10.854;2022-07-22T05:50:36;98958.13;;;18.46;78.05
65897;BME280;52677;50.898;10.854;2022-07-22T05:52:37;98961.66;;;18.50;77.88
65897;BME280;52677;50.898;10.854;2022-07-22T05:54:38;98956.03;;;18.54;77.80
65897;BME280;52677;50.898;10.854;2022-07-22T05:56:40;98955.19;;;18.57;77.68
65897;BME280;52677;50.898;10.854;2022-07-22T05:58:41;98965.94;;;18.62;77.60
65897;BME280;52677;50.898;10.854;2022-07-22T06:00:41;98960.78;;;18.57;78.21
65897;BME280;52677;50.898;10.854;2022-07-22T06:02:42;98959.50;;;18.62;78.09
65897;BME280;52677;50.898;10.854;2022-07-22T06:04:42;98953.84;;;18.69;78.29
65897;BME280;52677;50.898;10.854;2022-07-22T06:06:43;98963.44;;;18.71;77.99
65897;BME280;52677;50.898;10.854;2022-07-22T06:08:43;98966.97;;;18.75;77.97
65897;BME280;52677;50.898;10.854;2022-07-22T06:10:44;98968.88;;;18.82;77.66
65897;BME280;52677;50.898;10.854;2022-07-22T06:12:44;98962.06;;;18.83;77.29
65897;BME280;52677;50.898;10.854;2022-07-22T06:14:44;98964.94;;;18.76;77.73
65897;BME280;52677;50.898;10.854;2022-07-22T06:16:46;98961.25;;;18.83;77.46
65897;BME280;52677;50.898;10.854;2022-07-22T06:18:46;98960.03;;;18.84;77.33
65897;BME280;52677;50.898;10.854;2022-07-22T06:20:47;98963.81;;;19.00;76.80
65897;BME280;52677;50.898;10.854;2022-07-22T06:22:47;98974.59;;;19.29;76.39
65897;BME280;52677;50.898;10.854;2022-07-22T06:24:48;98970.13;;;19.58;75.04
65897;BME280;52677;50.898;10.854;2022-07-22T06:26:48;98973.69;;;19.62;73.58
65897;BME280;52677;50.898;10.854;2022-07-22T06:28:49;98960.31;;;19.70;73.69
65897;BME280;52677;50.898;10.854;2022-07-22T06:30:49;98962.06;;;19.84;73.82
65897;BME280;52677;50.898;10.854;2022-07-22T06:32:50;98968.44;;;20.08;73.24
65897;BME280;52677;50.898;10.854;2022-07-22T06:34:50;98960.75;;;20.32;71.43
65897;BME280;52677;50.898;10.854;2022-07-22T06:36:50;98958.13;;;20.01;71.65
65897;BME280;52677;50.898;10.854;2022-07-22T06:38:51;98958.59;;;20.19;71.82
65897;BME280;52677;50.898;10.854;2022-07-22T06:40:51;98949.53;;;20.52;70.88
65897;BME280;52677;50.898;10.854;2022-07-22T06:42:52;98966.81;;;20.30;70.47
65897;BME280;52677;50.898;10.854;2022-07-22T06:44:52;98961.41;;;20.19;71.06
65897;BME280;52677;50.898;10.854;2022-07-22T06:46:52;98961.34;;;19.80;72.42
65897;BME280;52677;50.898;10.854;2022-07-22T06:48:53;98962.34;;;19.70;72.75
65897;BME280;52677;50.898;10.854;2022-07-22T06:50:54;98958.53;;;19.56;72.88
65897;BME280;52677;50.898;10.854;2022-07-22T06:52:54;98965.63;;;19.64;72.99
65897;BME280;52677;50.898;10.854;2022-07-22T06:54:54;98964.16;;;19.56;73.30
65897;BME280;52677;50.898;10.854;2022-07-22T06:56:55;98954.78;;;19.40;73.85
65897;BME280;52677;50.898;10.854;2022-07-22T06:58:55;98967.16;;;19.42;73.59
65897;BME280;52677;50.898;10.854;2022-07-22T07:00:55;98967.41;;;19.51;73.37
65897;BME280;52677;50.898;10.854;2022-07-22T07:02:59;98966.16;;;19.56;73.67
65897;BME280;52677;50.898;10.854;2022-07-22T07:05:00;98968.03;;;19.39;73.50
65897;BME280;52677;50.898;10.854;2022-07-22T07:07:00;98969.00;;;19.29;74.35
65897;BME280;52677;50.898;10.854;2022-07-22T07:09:01;98971.63;;;19.40;74.15
65897;BME280;52677;50.898;10.854;2022-07-22T07:11:01;98964.13;;;19.33;74.12
65897;BME280;52677;50.898;10.854;2022-07-22T07:13:01;98968.28;;;19.48;73.59
65897;BME280;52677;50.898;10.854;2022-07-22T07:15:02;98970.19;;;19.55;73.88
65897;BME280;52677;50.898;10.854;2022-07-22T07:17:03;98966.53;;;19.58;72.94
65897;BME280;52677;50.898;10.854;2022-07-22T07:19:03;98963.19;;;19.67;72.75
65897;BME280;52677;50.898;10.854;2022-07-22T07:21:04;98958.97;;;19.78;72.33
65897;BME280;52677;50.898;10.854;2022-07-22T07:23:04;98970.22;;;19.98;71.99
65897;BME280;52677;50.898;10.854;2022-07-22T07:25:07;98963.34;;;20.03;71.12
65897;BME280;52677;50.898;10.854;2022-07-22T07:27:07;98966.06;;;20.06;70.93
65897;BME280;52677;50.898;10.854;2022-07-22T07:29:08;98964.50;;;20.05;70.66
65897;BME280;52677;50.898;10.854;2022-07-22T07:31:08;98958.91;;;20.02;70.71
65897;BME280;52677;50.898;10.854;2022-07-22T07:33:09;98966.88;;;20.07;71.19
65897;BME280;52677;50.898;10.854;2022-07-22T07:35:10;98962.25;;;20.16;70.18
65897;BME280;52677;50.898;10.854;2022-07-22T07:37:10;98961.38;;;20.00;70.31
65897;BME280;52677;50.898;10.854;2022-07-22T07:39:11;98963.66;;;19.85;70.58
65897;BME280;52677;50.898;10.854;2022-07-22T07:41:11;98969.31;;;19.61;71.94
65897;BME280;52677;50.898;10.854;2022-07-22T07:43:12;98963.28;;;19.83;71.90
65897;BME280;52677;50.898;10.854;2022-07-22T07:45:12;98965.78;;;19.77;71.23
65897;BME280;52677;50.898;10.854;2022-07-22T07:47:12;98971.00;;;19.79;71.63
65897;BME280;52677;50.898;10.854;2022-07-22T07:49:17;98966.56;;;20.01;70.75
65897;BME280;52677;50.898;10.854;2022-07-22T07:51:17;98961.16;;;20.10;70.54
65897;BME280;52677;50.898;10.854;2022-07-22T07:53:18;98965.16;;;20.13;70.06
65897;BME280;52677;50.898;10.854;2022-07-22T07:55:19;98964.28;;;20.16;70.40
65897;BME280;52677;50.898;10.854;2022-07-22T07:57:20;98958.25;;;20.37;69.24
65897;BME280;52677;50.898;10.854;2022-07-22T07:59:20;98962.09;;;20.47;69.24
65897;BME280;52677;50.898;10.854;2022-07-22T08:01:20;98945.19;;;20.27;69.01
65897;BME280;52677;50.898;10.854;2022-07-22T08:03:21;98956.94;;;20.42;68.64
65897;BME280;52677;50.898;10.854;2022-07-22T08:05:21;98942.53;;;20.60;67.66
65897;BME280;52677;50.898;10.854;2022-07-22T08:07:22;98945.97;;;20.67;68.21
65897;BME280;52677;50.898;10.854;2022-07-22T08:09:22;98950.16;;;20.79;67.64
65897;BME280;52677;50.898;10.854;2022-07-22T08:11:23;98951.44;;;20.74;66.55
65897;BME280;52677;50.898;10.854;2022-07-22T08:13:23;98953.56;;;20.51;67.96
65897;BME280;52677;50.898;10.854;2022-07-22T08:15:27;98945.22;;;20.47;67.87
65897;BME280;52677;50.898;10.854;2022-07-22T08:17:28;98949.69;;;20.44;67.92
65897;BME280;52677;50.898;10.854;2022-07-22T08:19:28;98949.25;;;20.46;68.17
65897;BME280;52677;50.898;10.854;2022-07-22T08:21:29;98946.81;;;20.48;67.68
65897;BME280;52677;50.898;10.854;2022-07-22T08:23:29;98942.31;;;20.31;67.89
65897;BME280;52677;50.898;10.854;2022-07-22T08:25:30;98939.28;;;20.41;67.64
65897;BME280;52677;50.898;10.854;2022-07-22T08:27:30;98940.75;;;20.50;67.30
65897;BME280;52677;50.898;10.854;2022-07-22T08:29:31;98942.19;;;20.38;67.75
65897;BME280;52677;50.898;10.854;2022-07-22T08:31:31;98931.22;;;20.24;68.01
65897;BME280;52677;50.898;10.854;2022-07-22T08:33:34;98935.81;;;20.34;67.82
65897;BME280;52677;50.898;10.854;2022-07-22T08:35:35;98938.38;;;20.48;67.96
65897;BME280;52677;50.898;10.854;2022-07-22T08:37:35;98932.47;;;20.62;67.07
65897;BME280;52677;50.898;10.854;2022-07-22T08:39:36;98939.72;;;20.60;66.66
65897;BME280;52677;50.898;10.854;2022-07-22T08:41:38;98936.66;;;20.54;66.16
65897;BME280;52677;50.898;10.854;2022-07-22T08:43:39;98938.22;;;20.55;66.21
65897;BME280;52677;50.898;10.854;2022-07-22T08:45:42;98928.22;;;20.54;66.13
65897;BME280;52677;50.898;10.854;2022-07-22T08:47:47;98927.69;;;20.59;65.90
65897;BME280;52677;50.898;10.854;2022-07-22T08:49:48;98932.97;;;20.57;66.74
65897;BME280;52677;50.898;10.854;2022-07-22T08:51:48;98922.53;;;20.74;65.78
65897;BME280;52677;50.898;10.854;2022-07-22T08:53:49;98933.78;;;20.74;65.94
65897;BME280;52677;50.898;10.854;2022-07-22T08:55:49;98937.03;;;20.72;66.40
65897;BME280;52677;50.898;10.854;2022-07-22T08:57:49;98933.34;;;20.75;66.09
65897;BME280;52677;50.898;10.854;2022-07-22T08:59:53;98928.31;;;20.67;66.14
65897;BME280;52677;50.898;10.854;2022-07-22T09:02:10;98929.63;;;20.62;66.77
65897;BME280;52677;50.898;10.854;2022-07-22T09:04:11;98924.22;;;20.52;66.83
65897;BME280;52677;50.898;10.854;2022-07-22T09:06:12;98918.91;;;20.57;66.92
65897;BME280;52677;50.898;10.854;2022-07-22T09:08:12;98923.69;;;20.76;66.71
65897;BME280;52677;50.898;10.854;2022-07-22T09:10:15;98931.91;;;20.67;66.38
65897;BME280;52677;50.898;10.854;2022-07-22T09:12:17;98919.94;;;20.47;67.16
65897;BME280;52677;50.898;10.854;2022-07-22T09:14:17;98918.50;;;20.75;66.88
65897;BME280;52677;50.898;10.854;2022-07-22T09:16:40;98921.44;;;20.88;65.44
65897;BME280;52677;50.898;10.854;2022-07-22T09:18:53;98920.03;;;20.96;65.18
65897;BME280;52677;50.898;10.854;2022-07-22T09:20:58;98915.28;;;20.93;65.30
65897;BME280;52677;50.898;10.854;2022-07-22T09:22:59;98907.38;;;20.88;64.01
65897;BME280;52677;50.898;10.854;2022-07-22T09:25:23;98922.94;;;21.09;63.81
65897;BME280;52677;50.898;10.854;2022-07-22T09:27:27;98908.22;;;21.53;62.71
65897;BME280;52677;50.898;10.854;2022-07-22T09:29:27;98906.16;;;21.70;61.24
65897;BME280;52677;50.898;10.854;2022-07-22T09:31:33;98902.06;;;21.87;61.33
65897;BME280;52677;50.898;10.854;2022-07-22T09:33:34;98904.13;;;22.00;59.90
65897;BME280;52677;50.898;10.854;2022-07-22T09:35:35;98907.84;;;21.97;60.24
65897;BME280;52677;50.898;10.854;2022-07-22T09:37:58;98910.53;;;22.17;59.79
65897;BME280;52677;50.898;10.854;2022-07-22T09:40:16;98900.78;;;22.34;59.49
65897;BME280;52677;50.898;10.854;2022-07-22T09:42:17;98903.66;;;22.59;58.59
65897;BME280;52677;50.898;10.854;2022-07-22T09:44:21;98902.63;;;22.66;57.35
65897;BME280;52677;50.898;10.854;2022-07-22T09:46:42;98900.63;;;22.79;57.38
65897;BME280;52677;50.898;10.854;2022-07-22T09:48:42;98898.28;;;22.90;56.77
65897;BME280;52677;50.898;10.854;2022-07-22T09:50:44;98896.94;;;22.95;56.23
65897;BME280;52677;50.898;10.854;2022-07-22T09:52:45;98900.75;;;22.88;56.23
65897;BME280;52677;50.898;10.854;2022-07-22T09:54:46;98902.81;;;22.88;56.80
65897;BME280;52677;50.898;10.854;2022-07-22T09:56:46;98898.75;;;23.02;56.49
65897;BME280;52677;50.898;10.854;2022-07-22T09:58:46;98907.19;;;23.14;56.16
65897;BME280;52677;50.898;10.854;2022-07-22T10:00:47;98905.81;;;23.32;55.89
65897;BME280;52677;50.898;10.854;2022-07-22T10:02:51;98912.59;;;23.34;54.33
65897;BME280;52677;50.898;10.854;2022-07-22T10:04:52;98905.81;;;23.32;54.76
65897;BME280;52677;50.898;10.854;2022-07-22T10:06:54;98906.75;;;23.03;55.33
65897;BME280;52677;50.898;10.854;2022-07-22T10:08:56;98899.03;;;23.16;55.15
65897;BME280;52677;50.898;10.854;2022-07-22T10:11:05;98904.22;;;23.31;55.04
65897;BME280;52677;50.898;10.854;2022-07-22T10:13:07;98904.31;;;23.40;54.78
65897;BME280;52677;50.898;10.854;2022-07-22T10:15:09;98886.91;;;23.41;53.35
65897;BME280;52677;50.898;10.854;2022-07-22T10:17:13;98888.53;;;23.42;54.07
65897;BME280;52677;50.898;10.854;2022-07-22T10:19:14;98894.28;;;23.39;53.54
65897;BME280;52677;50.898;10.854;2022-07-22T10:21:14;98886.03;;;23.32;53.66
65897;BME280;52677;50.898;10.854;2022-07-22T10:23:15;98887.19;;;23.34;53.96
65897;BME280;52677;50.898;10.854;2022-07-22T10:25:16;98883.53;;;23.46;53.55
65897;BME280;52677;50.898;10.854;2022-07-22T10:29:47;98880.94;;;23.52;53.04
65897;BME280;52677;50.898;10.854;2022-07-22T10:31:48;98881.19;;;23.32;52.49
65897;BME280;52677;50.898;10.854;2022-07-22T10:33:56;98876.31;;;23.45;52.93
65897;BME280;52677;50.898;10.854;2022-07-22T10:36:01;98875.59;;;23.54;53.21